createdAt,value
2023-02-26T00:04:38.142Z,4.70
2023-02-26T00:09:45.681Z,6.40
2023-02-26T00:14:51.144Z,3.00
2023-02-26T00:19:56.296Z,5.20
2023-02-26T00:25:03.633Z,3.35
2023-02-26T00:30:09.652Z,12.10
2023-02-26T00:35:16.380Z,25.83
2023-02-26T00:40:26.423Z,3.88
2023-02-26T00:45:32.207Z,3.97
2023-02-26T00:50:38.164Z,1.55
2023-02-26T00:55:45.434Z,0.80
2023-02-26T01:00:50.251Z,1.20
2023-02-26T01:05:55.253Z,1.73
2023-02-26T01:11:03.681Z,1.33
2023-02-26T01:16:10.994Z,1.63
2023-02-26T01:21:18.341Z,2.78
2023-02-26T01:26:27.282Z,1.35
2023-02-26T01:31:46.121Z,1.33
2023-02-26T01:36:53.643Z,1.83
2023-02-26T01:42:03.642Z,2.55
2023-02-26T01:47:12.504Z,1.30
2023-02-26T01:52:32.089Z,1.17
2023-02-26T01:57:39.434Z,1.13
2023-02-26T02:02:44.472Z,2.08
2023-02-26T02:07:51.288Z,1.83
2023-02-26T02:13:05.324Z,2.97
2023-02-26T02:18:15.813Z,2.35
2023-02-26T02:23:22.866Z,1.58
2023-02-26T02:28:38.335Z,2.95
2023-02-26T02:33:50.383Z,2.78
2023-02-26T02:38:57.463Z,2.45
2023-02-26T02:44:04.340Z,3.65
2023-02-26T02:49:13.649Z,2.67
2023-02-26T02:54:20.888Z,3.35
2023-02-26T02:59:27.626Z,5.00
2023-02-26T03:04:34.959Z,2.70
2023-02-26T03:09:39.644Z,2.80
2023-02-26T03:14:44.982Z,3.92
2023-02-26T03:19:59.458Z,3.45
2023-02-26T03:25:07.910Z,2.92
2023-02-26T03:30:16.867Z,4.50
2023-02-26T03:35:27.092Z,3.65
2023-02-26T03:40:34.551Z,4.28
2023-02-26T03:45:40.970Z,5.00
2023-02-26T03:50:49.688Z,3.90
2023-02-26T03:55:58.720Z,3.65
2023-02-26T04:01:06.117Z,4.65
2023-02-26T04:06:13.677Z,4.50
2023-02-26T04:11:20.217Z,7.60
2023-02-26T04:16:25.501Z,6.65
2023-02-26T04:21:33.137Z,4.22
2023-02-26T04:26:37.952Z,5.18
2023-02-26T04:31:43.477Z,4.30
2023-02-26T04:36:50.994Z,3.53
2023-02-26T04:41:55.749Z,2.85
2023-02-26T04:47:00.627Z,3.47
2023-02-26T04:52:07.973Z,3.72
2023-02-26T04:57:12.884Z,3.58
2023-02-26T05:02:17.667Z,4.53
2023-02-26T05:07:25.042Z,3.22
2023-02-26T05:12:29.736Z,4.80
2023-02-26T05:17:34.382Z,4.18
2023-02-26T05:22:42.119Z,6.72
2023-02-26T05:27:46.891Z,5.57
2023-02-26T05:32:52.082Z,5.75
2023-02-26T05:38:00.131Z,5.93
2023-02-26T05:43:04.808Z,5.93
2023-02-26T05:48:11.326Z,6.80
2023-02-26T05:53:18.809Z,6.32
2023-02-26T05:58:23.668Z,5.35
2023-02-26T06:03:28.625Z,5.60
2023-02-26T06:08:36.105Z,4.65
2023-02-26T06:13:40.804Z,4.03
2023-02-26T06:18:45.686Z,4.47
2023-02-26T06:23:52.982Z,5.30
2023-02-26T06:28:57.833Z,5.10
2023-02-26T06:34:02.860Z,7.63
2023-02-26T06:39:12.891Z,6.60
2023-02-26T06:44:17.718Z,5.75
2023-02-26T06:49:22.432Z,6.13
2023-02-26T06:54:29.766Z,5.68
2023-02-26T06:59:35.045Z,7.43
2023-02-26T07:04:39.812Z,6.32
2023-02-26T07:09:47.400Z,6.50
2023-02-26T07:14:52.134Z,8.32
2023-02-26T07:19:56.974Z,6.60
2023-02-26T07:25:04.584Z,6.22
2023-02-26T07:30:10.518Z,4.97
2023-02-26T07:35:15.446Z,4.95
2023-02-26T07:40:22.991Z,4.95
2023-02-26T07:45:28.023Z,4.68
2023-02-26T07:50:33.867Z,7.32
2023-02-26T07:55:41.125Z,7.05
2023-02-26T08:00:45.949Z,6.88
2023-02-26T08:05:51.049Z,6.05
2023-02-26T08:10:58.794Z,7.07
2023-02-26T08:16:03.527Z,5.72
2023-02-26T08:21:08.927Z,7.32
2023-02-26T08:26:16.375Z,7.22
2023-02-26T08:31:21.163Z,6.85
2023-02-26T08:36:26.997Z,6.45
2023-02-26T08:41:36.689Z,6.50
2023-02-26T08:46:41.524Z,5.87
2023-02-26T08:51:46.287Z,6.35
2023-02-26T08:56:53.684Z,8.60
2023-02-26T09:01:58.577Z,7.10
2023-02-26T09:07:03.370Z,6.63
2023-02-26T09:12:10.919Z,8.70
2023-02-26T09:17:15.647Z,13.05
2023-02-26T09:22:20.448Z,7.00
2023-02-26T09:27:28.152Z,8.93
2023-02-26T09:32:33.103Z,4.47
2023-02-26T09:37:37.908Z,5.97
2023-02-26T09:42:55.704Z,6.68
2023-02-26T09:48:00.686Z,4.90
2023-02-26T09:53:09.948Z,4.57
2023-02-26T09:58:19.543Z,5.03
2023-02-26T10:03:31.452Z,5.07
2023-02-26T10:08:41.060Z,5.95
2023-02-26T10:13:57.479Z,5.53
2023-02-26T10:19:05.564Z,4.35
2023-02-26T10:24:14.202Z,6.45
2023-02-26T10:29:24.824Z,4.13
2023-02-26T10:34:33.076Z,3.97
2023-02-26T10:39:41.114Z,5.82
2023-02-26T10:44:52.250Z,5.70
2023-02-26T10:49:57.885Z,6.93
2023-02-26T10:55:22.763Z,5.93
2023-02-26T11:00:30.424Z,6.45
2023-02-26T11:05:36.109Z,7.50
2023-02-26T11:10:45.499Z,7.13
2023-02-26T11:15:55.077Z,6.38
2023-02-26T11:21:01.019Z,8.60
2023-02-26T11:26:07.504Z,8.10
2023-02-26T11:31:15.933Z,9.75
2023-02-26T11:36:21.704Z,6.93
2023-02-26T11:41:27.727Z,9.10
2023-02-26T11:46:39.317Z,9.85
2023-02-26T11:51:46.100Z,10.40
2023-02-26T11:56:50.987Z,13.65
2023-02-26T12:01:58.313Z,11.27
2023-02-26T12:07:03.132Z,13.32
2023-02-26T12:12:12.807Z,13.63
2023-02-26T12:17:32.962Z,15.68
2023-02-26T12:22:43.693Z,12.23
2023-02-26T12:27:54.890Z,11.65
2023-02-26T12:33:08.448Z,8.65
2023-02-26T12:38:20.561Z,10.60
2023-02-26T12:43:28.759Z,9.32
2023-02-26T12:48:51.603Z,12.30
2023-02-26T12:54:08.523Z,13.43
2023-02-26T12:59:21.420Z,16.42
2023-02-26T13:04:44.339Z,13.50
2023-02-26T13:09:55.938Z,15.50
2023-02-26T13:15:08.182Z,16.10
2023-02-26T13:20:15.754Z,13.50
2023-02-26T13:25:26.581Z,12.30
2023-02-26T13:30:33.366Z,13.35
2023-02-26T13:35:40.091Z,12.88
2023-02-26T13:40:56.635Z,25.83
2023-02-26T13:46:08.176Z,16.75
2023-02-26T13:51:15.180Z,16.48
2023-02-26T13:56:24.745Z,12.82
2023-02-26T14:01:35.890Z,14.20
2023-02-26T14:06:42.356Z,13.95
2023-02-26T14:12:01.200Z,10.40
2023-02-26T14:17:22.864Z,10.15
2023-02-26T14:22:41.925Z,11.80
2023-02-26T14:27:49.897Z,11.77
2023-02-26T14:32:56.865Z,8.02
2023-02-26T14:38:03.418Z,10.48
2023-02-26T14:43:15.117Z,10.93
2023-02-26T14:48:20.744Z,11.02
2023-02-26T14:53:46.323Z,10.32
2023-02-26T14:59:14.748Z,8.98
2023-02-26T15:04:34.971Z,10.40
2023-02-26T15:09:49.377Z,13.27
2023-02-26T15:15:01.054Z,51.85
2023-02-26T15:20:13.270Z,34.05
2023-02-26T15:25:26.945Z,9.88
2023-02-26T15:30:32.695Z,9.35
2023-02-26T15:35:37.692Z,11.52
2023-02-26T15:40:45.925Z,23.00
2023-02-26T15:45:51.385Z,9.52
2023-02-26T15:50:57.947Z,9.10
2023-02-26T15:56:07.316Z,14.80
2023-02-26T16:01:17.847Z,10.43
2023-02-26T16:06:23.773Z,13.00
2023-02-26T16:11:35.463Z,10.85
2023-02-26T16:16:44.038Z,10.98
2023-02-26T16:21:49.120Z,11.20
2023-02-26T16:26:58.816Z,7.45
2023-02-26T16:32:05.264Z,17.67
2023-02-26T16:37:13.689Z,12.48
2023-02-26T16:42:24.546Z,20.13
2023-02-26T16:47:30.209Z,53.92
2023-02-26T16:52:36.689Z,14.48
2023-02-26T16:57:45.870Z,18.77
2023-02-26T17:02:51.858Z,31.98
2023-02-26T17:07:58.851Z,21.33
2023-02-26T17:13:16.758Z,22.70
2023-02-26T17:18:21.672Z,22.13
2023-02-26T17:23:27.127Z,17.27
2023-02-26T17:28:36.032Z,18.77
2023-02-26T17:33:41.498Z,20.33
2023-02-26T17:38:47.487Z,18.63
2023-02-26T17:43:55.261Z,13.02
2023-02-26T17:49:05.814Z,18.33
2023-02-26T17:54:11.056Z,10.93
2023-02-26T18:15:39.002Z,12.93
2023-02-26T18:20:44.400Z,16.35
2023-02-26T18:25:50.164Z,40.05
2023-02-26T18:30:58.519Z,34.65
2023-02-26T18:36:03.808Z,11.05
2023-02-26T18:41:08.984Z,11.57
2023-02-26T18:46:16.550Z,17.95
2023-02-26T18:51:21.493Z,16.15
2023-02-26T18:56:28.339Z,12.20
2023-02-26T19:01:35.992Z,11.93
2023-02-26T19:06:41.016Z,12.52
2023-02-26T19:11:48.156Z,14.18
2023-02-26T19:16:55.818Z,12.65
2023-02-26T19:22:02.320Z,12.40
2023-02-26T19:27:08.081Z,12.38
2023-02-26T19:32:15.926Z,12.73
2023-02-26T19:37:21.040Z,11.57
2023-02-26T19:42:28.559Z,11.55
2023-02-26T19:47:35.946Z,13.70
2023-02-26T19:52:40.772Z,10.73
2023-02-26T19:57:46.513Z,12.25
2023-02-26T20:02:56.580Z,10.90
2023-02-26T20:08:01.463Z,14.52
2023-02-26T20:13:06.557Z,10.57
2023-02-26T20:18:14.186Z,13.75
2023-02-26T20:23:18.961Z,14.98
2023-02-26T20:28:23.755Z,14.80
2023-02-26T20:33:33.388Z,12.70
2023-02-26T20:38:43.144Z,13.75
2023-02-26T20:43:48.140Z,13.88
2023-02-26T20:48:55.962Z,14.27
2023-02-26T20:54:00.737Z,11.25
2023-02-26T20:59:05.485Z,15.77
2023-02-26T21:04:13.453Z,10.43
2023-02-26T21:09:18.528Z,14.38
2023-02-26T21:14:24.808Z,9.15
2023-02-26T21:19:32.282Z,12.02
2023-02-26T21:24:37.048Z,10.65
2023-02-26T21:29:41.956Z,12.57
2023-02-26T21:34:52.381Z,7.63
2023-02-26T21:39:57.173Z,10.43
2023-02-26T21:45:04.414Z,7.70
2023-02-26T21:50:12.825Z,8.95
2023-02-26T21:55:17.786Z,12.60
2023-02-26T22:00:23.430Z,23.10
2023-02-26T22:05:30.959Z,14.20
2023-02-26T22:10:42.030Z,11.45
2023-02-26T22:15:46.950Z,10.30
2023-02-26T22:21:11.111Z,11.90
2023-02-26T22:26:18.826Z,11.98
2023-02-26T22:31:23.861Z,12.35
2023-02-26T22:36:30.335Z,12.00
2023-02-26T22:41:38.009Z,11.02
2023-02-26T22:46:42.967Z,10.20
2023-02-26T22:51:47.835Z,10.00
2023-02-26T22:56:55.244Z,9.25
2023-02-26T23:02:00.026Z,12.27
2023-02-26T23:07:04.848Z,9.90
2023-02-26T23:12:12.840Z,11.73
2023-02-26T23:17:17.974Z,8.77
2023-02-26T23:22:22.877Z,9.48
2023-02-26T23:27:30.238Z,7.68
2023-02-26T23:32:35.142Z,8.50
2023-02-26T23:37:39.931Z,15.15
2023-02-26T23:42:47.326Z,9.90
2023-02-26T23:47:51.968Z,26.42
2023-02-26T23:52:56.744Z,9.13
2023-02-26T23:58:04.292Z,15.05
